createdAt,value
2022-08-21T00:00:42.343Z,2.87
2022-08-21T00:03:13.864Z,2.90
2022-08-21T00:05:43.861Z,2.53
2022-08-21T00:08:13.236Z,2.77
2022-08-21T00:10:41.615Z,2.97
2022-08-21T00:13:09.538Z,3.03
2022-08-21T00:15:38.984Z,3.07
2022-08-21T00:18:09.053Z,3.10
2022-08-21T00:20:37.184Z,3.20
2022-08-21T00:23:05.779Z,3.20
2022-08-21T00:25:35.521Z,3.00
2022-08-21T00:28:03.738Z,2.90
2022-08-21T00:30:32.410Z,2.90
2022-08-21T00:33:00.865Z,3.10
2022-08-21T00:35:31.730Z,3.00
2022-08-21T00:37:59.751Z,2.73
2022-08-21T00:40:32.425Z,2.80
2022-08-21T00:43:03.631Z,3.10
2022-08-21T00:45:31.770Z,2.80
2022-08-21T00:47:59.932Z,2.60
2022-08-21T00:50:33.359Z,2.90
2022-08-21T00:53:03.773Z,3.00
2022-08-21T00:55:33.829Z,2.30
2022-08-21T00:58:08.081Z,2.70
2022-08-21T01:00:42.210Z,2.90
2022-08-21T01:03:13.013Z,3.10
2022-08-21T01:05:42.705Z,2.97
2022-08-21T01:08:12.270Z,3.20
2022-08-21T01:10:40.445Z,2.53
2022-08-21T01:13:11.584Z,2.83
2022-08-21T01:15:43.858Z,2.57
2022-08-21T01:18:13.386Z,3.10
2022-08-21T01:20:46.465Z,2.90
2022-08-21T01:23:16.161Z,3.10
2022-08-21T01:25:43.935Z,2.90
2022-08-21T01:28:15.240Z,2.90
2022-08-21T01:30:44.960Z,2.90
2022-08-21T01:33:13.123Z,3.00
2022-08-21T01:35:40.892Z,3.47
2022-08-21T01:38:08.806Z,2.70
2022-08-21T01:40:37.911Z,3.07
2022-08-21T01:43:05.871Z,2.70
2022-08-21T01:45:33.615Z,2.60
2022-08-21T01:48:01.461Z,3.20
2022-08-21T01:50:29.246Z,2.90
2022-08-21T01:52:57.195Z,2.60
2022-08-21T01:55:25.537Z,2.60
2022-08-21T01:57:54.639Z,2.57
2022-08-21T02:00:24.689Z,3.20
2022-08-21T02:02:53.365Z,3.03
2022-08-21T02:05:21.660Z,3.30
2022-08-21T02:07:51.444Z,3.13
2022-08-21T02:10:21.921Z,3.07
2022-08-21T02:12:50.664Z,3.10
2022-08-21T02:15:20.403Z,2.70
2022-08-21T02:17:50.864Z,2.53
2022-08-21T02:20:22.105Z,2.43
2022-08-21T02:22:50.486Z,3.40
2022-08-21T02:25:18.938Z,3.30
2022-08-21T02:27:48.816Z,2.80
2022-08-21T02:30:20.332Z,3.20
2022-08-21T02:32:48.616Z,2.80
2022-08-21T02:35:16.541Z,2.73
2022-08-21T02:37:46.463Z,2.80
2022-08-21T02:40:15.259Z,3.10
2022-08-21T02:42:44.743Z,3.00
2022-08-21T02:45:13.652Z,2.90
2022-08-21T02:47:49.733Z,2.90
2022-08-21T02:50:21.375Z,2.83
2022-08-21T02:52:51.828Z,2.93
2022-08-21T02:55:24.559Z,3.03
2022-08-21T02:57:52.281Z,3.07
2022-08-21T03:00:21.466Z,3.10
2022-08-21T03:02:51.200Z,3.13
2022-08-21T03:05:20.440Z,2.70
2022-08-21T03:07:49.152Z,3.13
2022-08-21T03:10:17.933Z,3.33
2022-08-21T03:12:45.590Z,3.33
2022-08-21T03:15:15.920Z,3.30
2022-08-21T03:17:43.661Z,3.10
2022-08-21T03:20:15.317Z,3.03
2022-08-21T03:22:48.557Z,3.17
2022-08-21T03:25:22.462Z,2.80
2022-08-21T03:27:59.200Z,3.30
2022-08-21T03:30:27.805Z,3.13
2022-08-21T03:32:55.650Z,3.40
2022-08-21T03:35:27.619Z,2.80
2022-08-21T03:37:56.191Z,3.50
2022-08-21T03:40:25.209Z,2.87
2022-08-21T03:42:53.394Z,2.90
2022-08-21T03:45:21.605Z,3.00
2022-08-21T03:47:54.941Z,2.73
2022-08-21T03:50:22.651Z,3.27
2022-08-21T03:52:51.773Z,3.27
2022-08-21T03:55:19.825Z,3.80
2022-08-21T03:57:47.730Z,2.93
2022-08-21T04:00:17.509Z,3.40
2022-08-21T04:02:45.615Z,2.90
2022-08-21T04:05:15.550Z,3.40
2022-08-21T04:07:43.741Z,3.27
2022-08-21T04:10:14.788Z,3.17
2022-08-21T04:12:42.509Z,3.00
2022-08-21T04:15:10.984Z,3.03
2022-08-21T04:17:38.714Z,3.23
2022-08-21T04:20:07.281Z,3.23
2022-08-21T04:22:34.986Z,3.20
2022-08-21T04:25:02.869Z,3.50
2022-08-21T04:27:31.923Z,3.40
2022-08-21T04:29:59.581Z,3.27
2022-08-21T04:32:28.913Z,3.20
2022-08-21T04:35:01.015Z,3.50
2022-08-21T04:37:29.358Z,3.00
2022-08-21T04:39:58.808Z,3.40
2022-08-21T04:42:27.857Z,3.57
2022-08-21T04:44:58.564Z,3.20
2022-08-21T04:47:41.672Z,3.03
2022-08-21T04:50:14.465Z,3.60
2022-08-21T04:52:43.781Z,3.27
2022-08-21T04:55:12.123Z,3.33
2022-08-21T04:57:48.462Z,3.83
2022-08-21T05:00:20.075Z,3.47
2022-08-21T05:02:49.087Z,4.00
2022-08-21T05:05:17.920Z,3.43
2022-08-21T05:07:47.159Z,4.10
2022-08-21T05:10:16.165Z,3.90
2022-08-21T05:12:45.038Z,3.80
2022-08-21T05:15:14.032Z,4.10
2022-08-21T05:17:43.817Z,3.37
2022-08-21T05:20:21.633Z,3.60
2022-08-21T05:22:49.688Z,3.33
2022-08-21T05:25:18.242Z,3.93
2022-08-21T05:27:50.165Z,3.20
2022-08-21T05:30:21.089Z,3.30
2022-08-21T05:32:50.502Z,3.10
2022-08-21T05:35:18.323Z,3.80
2022-08-21T05:37:46.664Z,3.00
2022-08-21T05:40:22.359Z,3.43
2022-08-21T05:42:54.035Z,3.03
2022-08-21T05:45:41.563Z,3.37
2022-08-21T05:48:13.693Z,2.97
2022-08-21T05:50:42.052Z,3.13
2022-08-21T05:53:11.657Z,3.90
2022-08-21T05:55:45.318Z,3.67
2022-08-21T05:58:14.461Z,3.73
2022-08-21T06:00:42.406Z,3.10
2022-08-21T06:03:16.554Z,3.27
2022-08-21T06:05:44.479Z,3.60
2022-08-21T06:08:12.288Z,3.83
2022-08-21T06:10:40.575Z,4.03
2022-08-21T06:13:08.299Z,4.00
2022-08-21T06:15:36.784Z,3.50
2022-08-21T06:18:04.941Z,4.57
2022-08-21T06:20:34.257Z,3.43
2022-08-21T06:23:02.402Z,4.70
2022-08-21T06:25:30.351Z,3.80
2022-08-21T06:28:03.691Z,3.90
2022-08-21T06:30:31.540Z,3.80
2022-08-21T06:32:59.746Z,3.40
2022-08-21T06:35:29.917Z,4.17
2022-08-21T06:37:59.800Z,3.63
2022-08-21T06:40:29.684Z,3.77
2022-08-21T06:42:58.321Z,3.87
2022-08-21T06:45:28.344Z,3.30
2022-08-21T06:48:00.055Z,3.80
2022-08-21T06:50:27.880Z,3.70
2022-08-21T06:53:02.474Z,3.93
2022-08-21T06:55:30.182Z,4.10
2022-08-21T06:57:57.902Z,4.17
2022-08-21T07:00:25.886Z,3.73
2022-08-21T07:02:53.803Z,4.23
2022-08-21T07:05:21.946Z,4.33
2022-08-21T07:07:50.200Z,4.37
2022-08-21T07:10:22.196Z,4.67
2022-08-21T07:13:00.084Z,4.00
2022-08-21T07:15:30.390Z,3.90
2022-08-21T07:17:59.593Z,3.80
2022-08-21T07:20:28.495Z,4.50
2022-08-21T07:22:57.135Z,4.10
2022-08-21T07:25:26.388Z,4.40
2022-08-21T07:27:54.342Z,4.43
2022-08-21T07:30:22.216Z,4.60
2022-08-21T07:32:50.877Z,4.13
2022-08-21T07:35:18.943Z,4.67
2022-08-21T07:37:47.755Z,4.27
2022-08-21T07:40:16.627Z,4.40
2022-08-21T07:42:47.891Z,4.23
2022-08-21T07:45:16.668Z,4.20
2022-08-21T07:47:45.700Z,3.90
2022-08-21T07:50:14.878Z,4.27
2022-08-21T07:52:43.867Z,4.10
2022-08-21T07:55:15.121Z,3.70
2022-08-21T07:57:43.521Z,4.70
2022-08-21T08:00:15.843Z,3.57
2022-08-21T08:02:47.454Z,4.23
2022-08-21T08:05:15.372Z,4.20
2022-08-21T08:07:43.428Z,4.10
2022-08-21T08:10:12.157Z,3.70
2022-08-21T08:12:43.292Z,3.57
2022-08-21T08:15:14.983Z,4.03
2022-08-21T08:17:42.873Z,4.00
2022-08-21T08:20:17.245Z,4.10
2022-08-21T08:22:50.076Z,4.80
2022-08-21T08:25:20.193Z,4.43
2022-08-21T08:27:48.226Z,4.10
2022-08-21T08:30:20.355Z,3.60
2022-08-21T08:32:49.154Z,3.80
2022-08-21T08:35:17.748Z,4.57
2022-08-21T08:37:52.353Z,4.00
2022-08-21T08:40:25.546Z,4.20
2022-08-21T08:42:53.627Z,3.80
2022-08-21T08:45:27.336Z,3.57
2022-08-21T08:48:01.332Z,3.80
2022-08-21T08:50:40.607Z,4.30
2022-08-21T08:53:14.210Z,3.57
2022-08-21T08:55:44.901Z,3.50
2022-08-21T08:58:19.464Z,3.87
2022-08-21T09:00:52.894Z,4.10
2022-08-21T09:03:21.447Z,4.40
2022-08-21T09:05:57.126Z,4.17
2022-08-21T09:08:50.699Z,3.47
2022-08-21T09:11:28.362Z,3.63
2022-08-21T09:14:07.544Z,3.57
2022-08-21T09:16:48.747Z,3.83
2022-08-21T09:19:34.045Z,4.17
2022-08-21T09:22:11.005Z,3.87
2022-08-21T09:24:51.963Z,4.50
2022-08-21T09:27:23.494Z,3.77
2022-08-21T09:29:55.259Z,4.40
2022-08-21T09:32:37.159Z,3.97
2022-08-21T09:35:14.238Z,4.17
2022-08-21T09:37:52.611Z,3.90
2022-08-21T09:40:31.713Z,3.40
2022-08-21T09:43:02.489Z,4.23
2022-08-21T09:45:33.875Z,3.90
2022-08-21T09:48:14.574Z,4.83
2022-08-21T09:50:43.510Z,4.50
2022-08-21T09:53:20.809Z,4.03
2022-08-21T09:56:13.091Z,4.77
2022-08-21T09:58:45.723Z,3.90
2022-08-21T10:01:17.710Z,4.27
2022-08-21T10:03:48.158Z,4.00
2022-08-21T10:06:24.990Z,4.20
2022-08-21T10:08:53.016Z,3.80
2022-08-21T10:11:30.451Z,4.20
2022-08-21T10:14:04.346Z,3.87
2022-08-21T10:16:42.404Z,3.87
2022-08-21T10:19:24.855Z,4.10
2022-08-21T10:22:03.220Z,4.03
2022-08-21T10:24:35.115Z,3.60
2022-08-21T10:27:17.953Z,4.00
2022-08-21T10:29:54.000Z,3.43
2022-08-21T10:32:43.376Z,3.93
2022-08-21T10:35:20.116Z,3.70
2022-08-21T10:38:03.339Z,4.03
2022-08-21T10:40:37.287Z,4.37
2022-08-21T10:43:22.050Z,4.33
2022-08-21T10:46:03.105Z,3.53
2022-08-21T10:48:37.633Z,4.47
2022-08-21T10:51:15.116Z,4.70
2022-08-21T10:54:03.202Z,4.03
2022-08-21T10:56:32.878Z,3.93
2022-08-21T10:59:17.830Z,5.00
2022-08-21T11:01:51.246Z,4.83
2022-08-21T11:04:30.040Z,3.50
2022-08-21T11:07:21.811Z,3.90
2022-08-21T11:09:51.352Z,4.27
2022-08-21T11:12:30.150Z,4.30
2022-08-21T11:15:03.569Z,3.80
2022-08-21T11:17:36.218Z,3.47
2022-08-21T11:20:10.329Z,3.53
2022-08-21T11:23:00.060Z,4.27
2022-08-21T11:25:38.353Z,4.10
2022-08-21T11:28:14.500Z,4.73
2022-08-21T11:30:52.305Z,4.07
2022-08-21T11:33:34.942Z,4.57
2022-08-21T11:36:12.666Z,4.13
2022-08-21T11:38:44.444Z,4.57
2022-08-21T11:41:31.241Z,4.23
2022-08-21T11:44:11.735Z,4.27
2022-08-21T11:46:50.254Z,4.20
2022-08-21T11:49:30.173Z,4.17
2022-08-21T11:52:10.153Z,4.53
2022-08-21T11:54:45.345Z,4.03
2022-08-21T11:57:19.419Z,4.07
2022-08-21T11:59:51.396Z,3.30
2022-08-21T12:02:23.065Z,3.83
2022-08-21T12:04:57.970Z,4.37
2022-08-21T12:07:38.923Z,4.53
2022-08-21T12:10:12.168Z,4.40
2022-08-21T12:12:42.767Z,3.57
2022-08-21T12:15:28.001Z,3.87
2022-08-21T12:18:00.251Z,3.33
2022-08-21T12:20:36.744Z,3.63
2022-08-21T12:23:16.627Z,3.53
2022-08-21T12:25:50.466Z,3.53
2022-08-21T12:28:25.521Z,3.97
2022-08-21T12:30:57.891Z,2.93
2022-08-21T12:33:30.733Z,3.30
2022-08-21T12:36:07.486Z,3.87
2022-08-21T12:38:44.379Z,3.10
2022-08-21T12:41:20.768Z,3.50
2022-08-21T12:43:52.846Z,3.27
2022-08-21T12:46:26.752Z,3.77
2022-08-21T12:48:59.261Z,3.20
2022-08-21T12:51:33.406Z,3.87
2022-08-21T12:54:01.777Z,3.90
2022-08-21T12:56:33.254Z,3.43
2022-08-21T12:59:06.051Z,4.30
2022-08-21T13:01:40.942Z,3.63
2022-08-21T13:04:13.152Z,3.80
2022-08-21T13:06:45.297Z,3.90
2022-08-21T13:09:16.271Z,3.60
2022-08-21T13:11:47.784Z,4.57
2022-08-21T13:14:27.958Z,4.00
2022-08-21T13:16:56.932Z,3.70
2022-08-21T13:19:26.544Z,3.70
2022-08-21T13:21:55.045Z,3.60
2022-08-21T13:24:41.830Z,4.60
2022-08-21T13:27:25.332Z,3.93
2022-08-21T13:30:08.229Z,3.57
2022-08-21T13:32:38.733Z,4.50
2022-08-21T13:35:20.225Z,4.20
2022-08-21T13:37:52.060Z,4.40
2022-08-21T13:40:23.877Z,3.80
2022-08-21T13:42:53.685Z,3.90
2022-08-21T13:45:26.697Z,3.30
2022-08-21T13:47:55.562Z,4.40
2022-08-21T13:50:26.858Z,3.53
2022-08-21T13:53:01.613Z,4.20
2022-08-21T13:55:38.717Z,3.73
2022-08-21T13:58:09.334Z,4.10
2022-08-21T14:00:46.926Z,3.63
2022-08-21T14:03:30.593Z,3.40
2022-08-21T14:06:00.314Z,3.30
2022-08-21T14:08:34.035Z,3.63
2022-08-21T14:11:04.608Z,3.50
2022-08-21T14:13:40.232Z,4.10
2022-08-21T14:16:15.415Z,3.10
2022-08-21T14:18:53.404Z,3.47
2022-08-21T14:21:33.530Z,3.40
2022-08-21T14:24:06.276Z,3.17
2022-08-21T14:26:37.070Z,3.57
2022-08-21T14:29:10.645Z,3.30
2022-08-21T14:31:39.576Z,3.30
2022-08-21T14:34:19.813Z,3.40
2022-08-21T14:36:48.586Z,3.23
2022-08-21T14:39:16.335Z,3.37
2022-08-21T14:41:46.992Z,2.97
2022-08-21T14:44:16.938Z,3.50
2022-08-21T14:46:55.979Z,3.60
2022-08-21T14:49:27.280Z,3.30
2022-08-21T14:51:58.554Z,3.50
2022-08-21T14:54:30.753Z,3.47
2022-08-21T14:57:01.344Z,3.70
2022-08-21T14:59:31.274Z,3.97
2022-08-21T15:01:59.105Z,3.20
2022-08-21T15:04:27.121Z,3.73
2022-08-21T15:06:54.987Z,3.97
2022-08-21T15:09:22.992Z,3.43
2022-08-21T15:11:50.800Z,3.60
2022-08-21T15:14:22.287Z,3.70
2022-08-21T15:16:52.791Z,3.83
2022-08-21T15:19:20.967Z,2.90
2022-08-21T15:21:48.775Z,3.70
2022-08-21T15:24:16.968Z,3.20
2022-08-21T15:26:45.709Z,3.60
2022-08-21T15:29:13.588Z,3.10
2022-08-21T15:31:55.203Z,3.43
2022-08-21T15:34:27.164Z,3.77
2022-08-21T15:36:56.993Z,3.00
2022-08-21T15:39:30.016Z,3.40
2022-08-21T15:41:59.333Z,3.03
2022-08-21T15:44:27.876Z,3.40
2022-08-21T15:46:57.436Z,3.40
2022-08-21T15:49:25.511Z,3.87
2022-08-21T15:51:53.374Z,3.80
2022-08-21T15:54:21.203Z,3.27
2022-08-21T15:56:52.554Z,3.90
2022-08-21T15:59:23.362Z,4.00
2022-08-21T16:01:51.952Z,3.70
2022-08-21T16:04:25.630Z,3.77
2022-08-21T16:06:58.058Z,3.67
2022-08-21T16:09:29.909Z,3.50
2022-08-21T16:11:57.828Z,4.27
2022-08-21T16:14:26.146Z,3.63
2022-08-21T16:16:54.922Z,3.43
2022-08-21T16:19:24.584Z,3.13
2022-08-21T16:21:52.545Z,3.70
2022-08-21T16:24:20.354Z,3.57
2022-08-21T16:26:57.717Z,3.53
2022-08-21T16:29:27.794Z,4.03
2022-08-21T16:31:56.251Z,3.30
2022-08-21T16:34:26.013Z,3.67
2022-08-21T16:36:53.815Z,3.33
2022-08-21T16:39:21.611Z,2.97
2022-08-21T16:41:51.082Z,3.73
2022-08-21T16:44:20.329Z,3.27
2022-08-21T16:46:48.587Z,3.50
2022-08-21T16:49:16.758Z,3.10
2022-08-21T16:51:46.165Z,3.90
2022-08-21T16:54:14.119Z,3.03
2022-08-21T16:56:47.413Z,2.80
2022-08-21T16:59:17.506Z,3.10
2022-08-21T17:01:46.262Z,2.90
2022-08-21T17:04:14.121Z,3.43
2022-08-21T17:06:42.173Z,3.50
2022-08-21T17:09:11.660Z,3.37
2022-08-21T17:11:42.312Z,3.20
2022-08-21T17:14:14.033Z,3.00
2022-08-21T17:16:45.557Z,3.20
2022-08-21T17:19:14.160Z,3.30
2022-08-21T17:21:42.354Z,3.70
2022-08-21T17:24:12.948Z,4.10
2022-08-21T17:26:40.764Z,3.27
2022-08-21T17:29:10.035Z,3.83
2022-08-21T17:31:48.404Z,3.43
2022-08-21T17:34:16.447Z,3.47
2022-08-21T17:36:44.193Z,4.07
2022-08-21T17:39:16.355Z,3.33
2022-08-21T17:41:52.395Z,3.40
2022-08-21T17:44:25.948Z,3.40
2022-08-21T17:46:53.906Z,4.03
2022-08-21T17:49:21.843Z,3.40
2022-08-21T17:51:50.599Z,3.40
2022-08-21T17:54:19.947Z,4.30
2022-08-21T17:56:48.295Z,3.00
2022-08-21T17:59:16.517Z,3.30
2022-08-21T18:01:47.105Z,3.80
2022-08-21T18:04:15.853Z,4.10
2022-08-21T18:06:45.647Z,3.70
2022-08-21T18:09:14.307Z,3.83
2022-08-21T18:11:44.782Z,3.83
2022-08-21T18:14:13.380Z,4.20
2022-08-21T18:16:41.409Z,4.30
2022-08-21T18:19:15.340Z,3.90
2022-08-21T18:21:43.130Z,4.27
2022-08-21T18:24:11.387Z,4.60
2022-08-21T18:26:41.738Z,4.50
2022-08-21T18:29:15.135Z,3.90
2022-08-21T18:31:46.018Z,4.50
2022-08-21T18:34:23.852Z,4.27
2022-08-21T18:36:52.673Z,4.93
2022-08-21T18:39:35.939Z,4.50
2022-08-21T18:42:10.014Z,3.70
2022-08-21T18:44:40.199Z,4.00
2022-08-21T18:47:11.665Z,3.43
2022-08-21T18:49:40.212Z,3.67
2022-08-21T18:52:09.738Z,4.00
2022-08-21T18:54:39.920Z,3.50
2022-08-21T18:57:11.661Z,3.70
2022-08-21T18:59:43.550Z,4.03
2022-08-21T19:02:11.657Z,3.60
2022-08-21T19:07:27.394Z,3.90
2022-08-21T19:10:24.302Z,3.90
2022-08-21T19:12:44.829Z,4.00
2022-08-21T19:15:17.014Z,4.47
2022-08-21T19:17:47.096Z,4.47
2022-08-21T19:20:25.655Z,3.83
2022-08-21T19:22:56.236Z,5.47
2022-08-21T19:25:51.743Z,4.23
2022-08-21T19:28:26.690Z,4.30
2022-08-21T19:30:58.544Z,4.20
2022-08-21T19:33:33.686Z,5.03
2022-08-21T19:36:01.919Z,4.67
2022-08-21T19:38:30.267Z,4.40
2022-08-21T19:41:00.388Z,4.60
2022-08-21T19:43:29.288Z,5.10
2022-08-21T19:45:59.694Z,4.90
2022-08-21T19:48:28.615Z,4.40
2022-08-21T19:50:56.731Z,4.70
2022-08-21T19:53:24.769Z,5.80
2022-08-21T19:55:53.230Z,4.77
2022-08-21T19:58:30.042Z,4.30
2022-08-21T20:00:59.404Z,4.57
2022-08-21T20:03:27.634Z,4.87
2022-08-21T20:05:55.496Z,5.03
2022-08-21T20:08:23.804Z,4.03
2022-08-21T20:10:58.214Z,4.40
2022-08-21T20:13:26.739Z,5.20
2022-08-21T20:15:55.677Z,5.03
2022-08-21T20:18:26.827Z,5.23
2022-08-21T20:20:55.402Z,4.43
2022-08-21T20:23:29.797Z,4.90
2022-08-21T20:25:58.558Z,5.30
2022-08-21T20:28:27.450Z,4.90
2022-08-21T20:30:56.927Z,5.03
2022-08-21T20:33:27.019Z,4.30
2022-08-21T20:35:55.697Z,4.60
2022-08-21T20:38:23.929Z,4.80
2022-08-21T20:40:54.661Z,4.70
2022-08-21T20:43:23.869Z,5.27
2022-08-21T20:45:52.023Z,5.10
2022-08-21T20:48:26.900Z,5.23
2022-08-21T20:51:07.975Z,4.17
2022-08-21T20:53:43.961Z,4.07
2022-08-21T20:56:18.042Z,4.80
2022-08-21T20:58:53.195Z,4.40
2022-08-21T21:01:24.601Z,4.30
2022-08-21T21:03:59.394Z,4.90
2022-08-21T21:06:30.503Z,4.70
2022-08-21T21:09:02.687Z,4.23
2022-08-21T21:11:35.068Z,4.10
2022-08-21T21:14:11.427Z,4.93
2022-08-21T21:16:45.920Z,4.50
2022-08-21T21:22:30.133Z,4.47
2022-08-21T21:25:04.267Z,4.83
2022-08-21T21:27:37.732Z,5.17
2022-08-21T21:30:12.325Z,4.37
2022-08-21T21:32:42.666Z,4.47
2022-08-21T21:35:15.115Z,4.57
2022-08-21T21:37:55.144Z,4.53
2022-08-21T21:40:45.749Z,4.07
2022-08-21T21:43:24.415Z,3.93
2022-08-21T21:46:10.415Z,4.33
2022-08-21T21:48:51.509Z,4.67
2022-08-21T21:51:32.668Z,4.13
2022-08-21T21:54:16.362Z,4.20
2022-08-21T21:56:56.214Z,4.57
2022-08-21T21:59:38.114Z,4.77
2022-08-21T22:02:13.664Z,4.20
2022-08-21T22:04:56.965Z,4.10
2022-08-21T22:07:32.191Z,3.97
2022-08-21T22:10:30.170Z,4.30
2022-08-21T22:13:10.070Z,4.27
2022-08-21T22:15:41.347Z,4.40
2022-08-21T22:18:12.070Z,4.30
2022-08-21T22:20:46.259Z,4.90
2022-08-21T22:23:18.980Z,4.33
2022-08-21T22:25:53.012Z,4.63
2022-08-21T22:28:25.601Z,4.70
2022-08-21T22:30:56.206Z,4.80
2022-08-21T22:33:27.057Z,4.10
2022-08-21T22:35:58.720Z,5.03
2022-08-21T22:38:36.962Z,4.83
2022-08-21T22:44:06.962Z,5.00
2022-08-21T22:46:48.190Z,4.90
2022-08-21T22:49:29.795Z,4.90
2022-08-21T22:52:10.565Z,4.90
2022-08-21T22:54:42.377Z,4.70
2022-08-21T22:57:21.637Z,4.03
2022-08-21T23:00:00.442Z,4.70
2022-08-21T23:02:37.831Z,4.20
2022-08-21T23:05:18.683Z,4.30
2022-08-21T23:07:49.898Z,4.57
2022-08-21T23:10:41.182Z,5.00
2022-08-21T23:13:14.172Z,4.30
2022-08-21T23:16:02.577Z,4.23
2022-08-21T23:18:43.707Z,4.87
2022-08-21T23:21:16.630Z,4.70
2022-08-21T23:24:01.462Z,4.80
2022-08-21T23:26:40.455Z,4.80
2022-08-21T23:29:27.189Z,4.50
2022-08-21T23:32:02.643Z,4.77
2022-08-21T23:34:43.397Z,4.07
2022-08-21T23:37:48.966Z,4.70
2022-08-21T23:40:50.927Z,4.10
2022-08-21T23:43:40.810Z,3.67
2022-08-21T23:46:34.485Z,4.83
2022-08-21T23:49:11.132Z,4.57
2022-08-21T23:51:49.146Z,3.97
2022-08-21T23:54:23.356Z,4.47
2022-08-21T23:57:08.026Z,4.10
2022-08-21T23:59:49.727Z,4.20
